sensor_id;sensor_type;location;lat;lon;timestamp;pressure;altitude;pressure_sealevel;temperature;humidity
12594;BME280;6362;50.208;9.182;2023-01-09T00:02:04;98015.78;;;7.95;80.58
12594;BME280;6362;50.208;9.182;2023-01-09T00:04:30;98025.41;;;7.90;81.14
12594;BME280;6362;50.208;9.182;2023-01-09T00:06:55;98028.06;;;7.87;81.65
12594;BME280;6362;50.208;9.182;2023-01-09T00:09:22;98032.06;;;7.67;82.12
12594;BME280;6362;50.208;9.182;2023-01-09T00:11:48;98031.56;;;7.53;83.23
12594;BME280;6362;50.208;9.182;2023-01-09T00:14:15;98028.91;;;7.56;83.60
12594;BME280;6362;50.208;9.182;2023-01-09T00:16:40;98033.88;;;7.64;82.98
12594;BME280;6362;50.208;9.182;2023-01-09T00:19:06;98021.88;;;7.61;83.23
12594;BME280;6362;50.208;9.182;2023-01-09T00:21:31;98013.97;;;7.67;83.26
12594;BME280;6362;50.208;9.182;2023-01-09T00:23:57;98014.69;;;7.73;83.14
12594;BME280;6362;50.208;9.182;2023-01-09T00:26:22;98011.53;;;7.61;83.21
12594;BME280;6362;50.208;9.182;2023-01-09T00:28:50;98006.34;;;7.61;83.83
12594;BME280;6362;50.208;9.182;2023-01-09T00:31:16;98001.13;;;7.63;83.68
12594;BME280;6362;50.208;9.182;2023-01-09T00:33:45;98000.28;;;7.62;84.34
12594;BME280;6362;50.208;9.182;2023-01-09T00:36:12;97996.03;;;7.60;83.81
12594;BME280;6362;50.208;9.182;2023-01-09T00:38:37;97992.59;;;7.59;84.22
12594;BME280;6362;50.208;9.182;2023-01-09T00:41:05;97992.47;;;7.64;84.32
12594;BME280;6362;50.208;9.182;2023-01-09T00:43:34;97990.06;;;7.58;84.52
12594;BME280;6362;50.208;9.182;2023-01-09T00:46:04;97985.63;;;7.63;84.10
12594;BME280;6362;50.208;9.182;2023-01-09T00:48:31;97980.56;;;7.58;84.55
12594;BME280;6362;50.208;9.182;2023-01-09T00:50:58;97984.78;;;7.62;84.63
12594;BME280;6362;50.208;9.182;2023-01-09T00:53:27;97983.03;;;7.63;84.17
12594;BME280;6362;50.208;9.182;2023-01-09T00:55:55;97980.50;;;7.61;84.42
12594;BME280;6362;50.208;9.182;2023-01-09T00:58:24;97979.88;;;7.52;84.84
12594;BME280;6362;50.208;9.182;2023-01-09T01:00:49;97972.25;;;7.47;85.21
12594;BME280;6362;50.208;9.182;2023-01-09T01:03:15;97971.28;;;7.51;85.33
12594;BME280;6362;50.208;9.182;2023-01-09T01:05:40;97968.69;;;7.51;84.44
12594;BME280;6362;50.208;9.182;2023-01-09T01:08:24;97968.56;;;7.56;84.79
12594;BME280;6362;50.208;9.182;2023-01-09T01:10:50;97976.34;;;7.56;85.01
12594;BME280;6362;50.208;9.182;2023-01-09T01:13:16;97969.53;;;7.52;85.13
12594;BME280;6362;50.208;9.182;2023-01-09T01:15:42;97967.78;;;7.52;85.02
12594;BME280;6362;50.208;9.182;2023-01-09T01:18:10;97956.59;;;7.52;84.89
12594;BME280;6362;50.208;9.182;2023-01-09T01:20:42;97957.44;;;7.52;84.47
12594;BME280;6362;50.208;9.182;2023-01-09T01:23:07;97966.94;;;7.52;84.92
12594;BME280;6362;50.208;9.182;2023-01-09T01:25:42;97955.72;;;7.53;84.40
12594;BME280;6362;50.208;9.182;2023-01-09T01:28:08;97952.22;;;7.55;84.10
12594;BME280;6362;50.208;9.182;2023-01-09T01:30:39;97946.97;;;7.57;84.53
12594;BME280;6362;50.208;9.182;2023-01-09T01:33:04;97945.28;;;7.56;84.45
12594;BME280;6362;50.208;9.182;2023-01-09T01:35:30;97935.13;;;7.48;85.09
12594;BME280;6362;50.208;9.182;2023-01-09T01:37:55;97932.56;;;7.48;84.98
12594;BME280;6362;50.208;9.182;2023-01-09T01:40:21;97920.50;;;7.47;84.52
12594;BME280;6362;50.208;9.182;2023-01-09T01:42:51;97922.88;;;7.55;84.31
12594;BME280;6362;50.208;9.182;2023-01-09T01:45:20;97924.50;;;7.59;83.83
12594;BME280;6362;50.208;9.182;2023-01-09T01:50:36;97924.44;;;7.60;83.98
12594;BME280;6362;50.208;9.182;2023-01-09T01:53:51;97915.00;;;7.59;83.81
12594;BME280;6362;50.208;9.182;2023-01-09T01:58:49;97920.28;;;7.56;84.14
12594;BME280;6362;50.208;9.182;2023-01-09T02:01:16;97925.41;;;7.58;84.30
12594;BME280;6362;50.208;9.182;2023-01-09T02:03:43;97921.00;;;7.61;83.54
12594;BME280;6362;50.208;9.182;2023-01-09T02:06:10;97923.66;;;7.58;83.71
12594;BME280;6362;50.208;9.182;2023-01-09T02:08:36;97921.91;;;7.59;83.46
12594;BME280;6362;50.208;9.182;2023-01-09T02:11:03;97926.28;;;7.57;83.55
12594;BME280;6362;50.208;9.182;2023-01-09T02:13:29;97908.91;;;7.62;83.68
12594;BME280;6362;50.208;9.182;2023-01-09T02:20:58;97906.19;;;7.66;82.91
12594;BME280;6362;50.208;9.182;2023-01-09T02:37:34;97917.69;;;7.86;81.58
12594;BME280;6362;50.208;9.182;2023-01-09T02:40:32;97913.38;;;7.86;81.98
12594;BME280;6362;50.208;9.182;2023-01-09T02:42:50;97926.84;;;7.98;81.44
12594;BME280;6362;50.208;9.182;2023-01-09T02:45:18;97929.44;;;7.98;81.46
12594;BME280;6362;50.208;9.182;2023-01-09T02:47:45;97928.81;;;7.89;82.19
12594;BME280;6362;50.208;9.182;2023-01-09T02:50:23;97940.94;;;7.87;82.51
12594;BME280;6362;50.208;9.182;2023-01-09T02:53:07;97940.13;;;7.85;83.19
12594;BME280;6362;50.208;9.182;2023-01-09T02:58:45;97954.94;;;7.80;83.91
12594;BME280;6362;50.208;9.182;2023-01-09T03:03:55;97948.50;;;7.64;84.17
12594;BME280;6362;50.208;9.182;2023-01-09T03:09:14;97946.09;;;7.58;84.49
12594;BME280;6362;50.208;9.182;2023-01-09T03:11:43;97959.09;;;7.55;84.25
12594;BME280;6362;50.208;9.182;2023-01-09T03:14:14;97960.97;;;7.50;84.76
12594;BME280;6362;50.208;9.182;2023-01-09T03:16:44;97961.91;;;7.47;84.35
12594;BME280;6362;50.208;9.182;2023-01-09T03:19:15;97968.09;;;7.41;84.40
12594;BME280;6362;50.208;9.182;2023-01-09T03:21:44;97968.25;;;7.35;84.74
12594;BME280;6362;50.208;9.182;2023-01-09T03:24:10;97962.91;;;7.41;84.44
12594;BME280;6362;50.208;9.182;2023-01-09T03:26:36;97950.50;;;7.22;84.93
12594;BME280;6362;50.208;9.182;2023-01-09T03:29:02;97966.16;;;7.17;85.31
12594;BME280;6362;50.208;9.182;2023-01-09T03:31:28;97975.53;;;7.20;85.75
12594;BME280;6362;50.208;9.182;2023-01-09T03:33:54;97979.75;;;7.24;85.54
12594;BME280;6362;50.208;9.182;2023-01-09T03:36:20;97995.25;;;7.24;85.48
12594;BME280;6362;50.208;9.182;2023-01-09T03:38:46;98007.31;;;7.25;85.07
12594;BME280;6362;50.208;9.182;2023-01-09T03:41:11;98006.34;;;7.29;85.43
12594;BME280;6362;50.208;9.182;2023-01-09T03:43:37;98005.81;;;7.14;85.70
12594;BME280;6362;50.208;9.182;2023-01-09T03:46:03;98005.59;;;7.24;85.50
12594;BME280;6362;50.208;9.182;2023-01-09T03:48:28;98005.72;;;7.19;85.14
12594;BME280;6362;50.208;9.182;2023-01-09T03:50:55;98015.28;;;7.15;85.28
12594;BME280;6362;50.208;9.182;2023-01-09T03:53:23;98017.69;;;7.22;85.43
12594;BME280;6362;50.208;9.182;2023-01-09T03:55:51;98029.81;;;7.20;85.32
12594;BME280;6362;50.208;9.182;2023-01-09T03:58:18;98040.88;;;7.26;85.28
12594;BME280;6362;50.208;9.182;2023-01-09T04:00:44;98032.47;;;7.18;84.74
12594;BME280;6362;50.208;9.182;2023-01-09T04:03:13;98024.75;;;7.17;84.67
12594;BME280;6362;50.208;9.182;2023-01-09T04:05:39;98030.19;;;7.06;85.04
12594;BME280;6362;50.208;9.182;2023-01-09T04:08:05;98025.13;;;7.01;85.63
12594;BME280;6362;50.208;9.182;2023-01-09T04:10:30;98023.28;;;7.06;85.05
12594;BME280;6362;50.208;9.182;2023-01-09T04:12:56;98037.09;;;7.04;85.10
12594;BME280;6362;50.208;9.182;2023-01-09T04:15:22;98041.22;;;7.12;84.29
12594;BME280;6362;50.208;9.182;2023-01-09T04:17:47;98041.66;;;7.30;82.79
12594;BME280;6362;50.208;9.182;2023-01-09T04:20:13;98043.72;;;7.15;82.53
12594;BME280;6362;50.208;9.182;2023-01-09T04:22:39;98045.44;;;7.17;82.28
12594;BME280;6362;50.208;9.182;2023-01-09T04:25:04;98056.88;;;7.06;82.61
12594;BME280;6362;50.208;9.182;2023-01-09T04:27:30;98062.84;;;7.08;82.72
12594;BME280;6362;50.208;9.182;2023-01-09T04:29:55;98060.22;;;7.10;82.79
12594;BME280;6362;50.208;9.182;2023-01-09T04:32:21;98068.81;;;7.12;82.73
12594;BME280;6362;50.208;9.182;2023-01-09T04:34:46;98076.56;;;7.10;82.96
12594;BME280;6362;50.208;9.182;2023-01-09T04:37:12;98081.97;;;7.01;82.83
12594;BME280;6362;50.208;9.182;2023-01-09T04:39:37;98095.66;;;7.05;81.91
12594;BME280;6362;50.208;9.182;2023-01-09T04:42:03;98101.81;;;6.99;82.34
12594;BME280;6362;50.208;9.182;2023-01-09T04:44:28;98100.16;;;6.97;82.53
12594;BME280;6362;50.208;9.182;2023-01-09T04:46:55;98112.06;;;7.04;82.12
12594;BME280;6362;50.208;9.182;2023-01-09T04:49:23;98115.72;;;6.94;82.49
12594;BME280;6362;50.208;9.182;2023-01-09T04:51:48;98123.41;;;6.97;82.10
12594;BME280;6362;50.208;9.182;2023-01-09T04:54:14;98131.28;;;6.92;82.31
12594;BME280;6362;50.208;9.182;2023-01-09T04:56:39;98137.59;;;6.79;83.06
12594;BME280;6362;50.208;9.182;2023-01-09T04:59:05;98138.88;;;6.98;82.03
12594;BME280;6362;50.208;9.182;2023-01-09T05:01:31;98144.31;;;6.86;82.42
12594;BME280;6362;50.208;9.182;2023-01-09T05:03:57;98147.00;;;6.81;82.34
12594;BME280;6362;50.208;9.182;2023-01-09T05:06:22;98153.00;;;6.83;82.39
12594;BME280;6362;50.208;9.182;2023-01-09T05:08:48;98167.41;;;6.95;82.19
12594;BME280;6362;50.208;9.182;2023-01-09T05:11:13;98171.94;;;6.84;82.28
12594;BME280;6362;50.208;9.182;2023-01-09T05:13:39;98180.66;;;6.78;82.17
12594;BME280;6362;50.208;9.182;2023-01-09T05:16:05;98179.59;;;6.88;82.27
12594;BME280;6362;50.208;9.182;2023-01-09T05:18:31;98184.59;;;6.96;81.91
12594;BME280;6362;50.208;9.182;2023-01-09T05:20:56;98187.91;;;7.03;81.25
12594;BME280;6362;50.208;9.182;2023-01-09T05:23:22;98193.06;;;7.03;81.68
12594;BME280;6362;50.208;9.182;2023-01-09T05:25:47;98201.97;;;6.88;81.52
12594;BME280;6362;50.208;9.182;2023-01-09T05:28:13;98199.41;;;6.88;81.79
12594;BME280;6362;50.208;9.182;2023-01-09T05:30:38;98198.00;;;6.72;82.82
12594;BME280;6362;50.208;9.182;2023-01-09T05:33:03;98198.88;;;6.71;82.69
12594;BME280;6362;50.208;9.182;2023-01-09T05:35:29;98201.56;;;6.68;82.82
12594;BME280;6362;50.208;9.182;2023-01-09T05:37:54;98205.19;;;6.57;83.22
12594;BME280;6362;50.208;9.182;2023-01-09T05:40:21;98210.97;;;6.70;82.64
12594;BME280;6362;50.208;9.182;2023-01-09T05:42:46;98215.19;;;6.74;82.34
12594;BME280;6362;50.208;9.182;2023-01-09T05:45:12;98217.22;;;6.58;82.64
12594;BME280;6362;50.208;9.182;2023-01-09T05:47:37;98225.97;;;6.51;83.03
12594;BME280;6362;50.208;9.182;2023-01-09T05:50:03;98232.91;;;6.48;83.24
12594;BME280;6362;50.208;9.182;2023-01-09T05:52:29;98241.69;;;6.39;83.37
12594;BME280;6362;50.208;9.182;2023-01-09T05:54:54;98240.72;;;6.45;83.57
12594;BME280;6362;50.208;9.182;2023-01-09T05:57:20;98241.81;;;6.33;83.64
12594;BME280;6362;50.208;9.182;2023-01-09T05:59:45;98246.22;;;6.25;83.46
12594;BME280;6362;50.208;9.182;2023-01-09T06:02:11;98246.97;;;6.31;83.11
12594;BME280;6362;50.208;9.182;2023-01-09T06:04:36;98257.47;;;6.22;83.56
12594;BME280;6362;50.208;9.182;2023-01-09T06:07:02;98254.06;;;6.20;83.78
12594;BME280;6362;50.208;9.182;2023-01-09T06:09:28;98253.38;;;6.09;83.68
12594;BME280;6362;50.208;9.182;2023-01-09T06:11:54;98255.94;;;6.12;83.65
12594;BME280;6362;50.208;9.182;2023-01-09T06:14:20;98257.75;;;6.04;83.83
12594;BME280;6362;50.208;9.182;2023-01-09T06:16:45;98263.56;;;6.18;83.26
12594;BME280;6362;50.208;9.182;2023-01-09T06:19:11;98260.25;;;6.10;83.81
12594;BME280;6362;50.208;9.182;2023-01-09T06:21:37;98268.84;;;6.12;83.62
12594;BME280;6362;50.208;9.182;2023-01-09T06:24:02;98275.66;;;6.15;83.68
12594;BME280;6362;50.208;9.182;2023-01-09T06:26:28;98286.72;;;6.23;83.59
12594;BME280;6362;50.208;9.182;2023-01-09T06:28:53;98286.66;;;6.26;83.15
12594;BME280;6362;50.208;9.182;2023-01-09T06:31:21;98291.03;;;6.21;83.13
12594;BME280;6362;50.208;9.182;2023-01-09T06:33:46;98295.47;;;6.14;83.52
12594;BME280;6362;50.208;9.182;2023-01-09T06:36:12;98296.38;;;6.12;83.55
12594;BME280;6362;50.208;9.182;2023-01-09T06:38:37;98293.63;;;6.21;83.22
12594;BME280;6362;50.208;9.182;2023-01-09T06:41:03;98306.59;;;6.16;82.85
12594;BME280;6362;50.208;9.182;2023-01-09T06:43:29;98306.59;;;6.16;81.75
12594;BME280;6362;50.208;9.182;2023-01-09T06:45:54;98309.03;;;6.25;81.43
12594;BME280;6362;50.208;9.182;2023-01-09T06:48:20;98308.16;;;6.26;80.79
12594;BME280;6362;50.208;9.182;2023-01-09T06:50:47;98314.94;;;6.32;80.09
12594;BME280;6362;50.208;9.182;2023-01-09T06:53:12;98322.00;;;6.22;80.14
12594;BME280;6362;50.208;9.182;2023-01-09T06:55:38;98322.03;;;6.19;79.37
12594;BME280;6362;50.208;9.182;2023-01-09T06:58:03;98316.78;;;6.25;79.46
12594;BME280;6362;50.208;9.182;2023-01-09T07:00:29;98323.59;;;6.29;78.67
12594;BME280;6362;50.208;9.182;2023-01-09T07:02:55;98320.31;;;6.20;78.86
12594;BME280;6362;50.208;9.182;2023-01-09T07:05:21;98328.22;;;6.09;78.27
12594;BME280;6362;50.208;9.182;2023-01-09T07:07:46;98327.41;;;6.07;77.85
12594;BME280;6362;50.208;9.182;2023-01-09T07:10:12;98336.81;;;6.11;77.55
12594;BME280;6362;50.208;9.182;2023-01-09T07:12:38;98345.34;;;6.15;77.34
12594;BME280;6362;50.208;9.182;2023-01-09T07:15:04;98346.97;;;6.20;77.06
12594;BME280;6362;50.208;9.182;2023-01-09T07:17:29;98337.47;;;6.24;76.87
12594;BME280;6362;50.208;9.182;2023-01-09T07:19:57;98342.50;;;6.33;77.01
12594;BME280;6362;50.208;9.182;2023-01-09T07:22:22;98345.06;;;6.33;76.51
12594;BME280;6362;50.208;9.182;2023-01-09T07:24:47;98342.44;;;6.36;76.59
12594;BME280;6362;50.208;9.182;2023-01-09T07:27:13;98356.22;;;6.35;76.76
12594;BME280;6362;50.208;9.182;2023-01-09T07:29:38;98353.63;;;6.35;77.51
12594;BME280;6362;50.208;9.182;2023-01-09T07:32:04;98354.38;;;6.42;76.71
12594;BME280;6362;50.208;9.182;2023-01-09T07:34:29;98361.09;;;6.52;75.90
12594;BME280;6362;50.208;9.182;2023-01-09T07:36:55;98361.09;;;6.52;76.08
12594;BME280;6362;50.208;9.182;2023-01-09T07:39:20;98362.84;;;6.51;76.08
12594;BME280;6362;50.208;9.182;2023-01-09T07:41:46;98372.28;;;6.52;75.71
12594;BME280;6362;50.208;9.182;2023-01-09T07:44:12;98370.63;;;6.48;75.66
12594;BME280;6362;50.208;9.182;2023-01-09T07:46:37;98372.31;;;6.49;75.37
12594;BME280;6362;50.208;9.182;2023-01-09T07:49:03;98364.44;;;6.58;74.50
12594;BME280;6362;50.208;9.182;2023-01-09T07:51:29;98378.28;;;6.54;75.25
12594;BME280;6362;50.208;9.182;2023-01-09T07:53:54;98386.91;;;6.53;75.03
12594;BME280;6362;50.208;9.182;2023-01-09T07:56:20;98390.44;;;6.48;75.35
12594;BME280;6362;50.208;9.182;2023-01-09T07:58:45;98389.56;;;6.50;74.92
12594;BME280;6362;50.208;9.182;2023-01-09T08:01:10;98380.94;;;6.50;75.05
12594;BME280;6362;50.208;9.182;2023-01-09T08:03:36;98381.88;;;6.46;75.17
12594;BME280;6362;50.208;9.182;2023-01-09T08:06:02;98387.81;;;6.49;74.75
12594;BME280;6362;50.208;9.182;2023-01-09T08:08:28;98390.44;;;6.48;75.27
12594;BME280;6362;50.208;9.182;2023-01-09T08:10:53;98380.28;;;6.39;75.21
12594;BME280;6362;50.208;9.182;2023-01-09T08:13:19;98390.59;;;6.39;75.43
12594;BME280;6362;50.208;9.182;2023-01-09T08:15:45;98393.09;;;6.43;75.20
12594;BME280;6362;50.208;9.182;2023-01-09T08:18:10;98390.47;;;6.46;74.64
12594;BME280;6362;50.208;9.182;2023-01-09T08:20:36;98393.03;;;6.46;75.10
12594;BME280;6362;50.208;9.182;2023-01-09T08:23:01;98386.09;;;6.51;73.96
12594;BME280;6362;50.208;9.182;2023-01-09T08:25:27;98397.28;;;6.50;73.79
12594;BME280;6362;50.208;9.182;2023-01-09T08:27:52;98406.75;;;6.51;73.85
12594;BME280;6362;50.208;9.182;2023-01-09T08:30:18;98401.63;;;6.50;74.16
12594;BME280;6362;50.208;9.182;2023-01-09T08:32:49;98397.22;;;6.53;74.00
12594;BME280;6362;50.208;9.182;2023-01-09T08:35:14;98389.44;;;6.55;73.90
12594;BME280;6362;50.208;9.182;2023-01-09T08:37:43;98399.72;;;6.61;74.03
12594;BME280;6362;50.208;9.182;2023-01-09T08:40:09;98401.47;;;6.57;74.10
12594;BME280;6362;50.208;9.182;2023-01-09T08:42:35;98392.81;;;6.60;73.85
12594;BME280;6362;50.208;9.182;2023-01-09T08:45:19;98398.94;;;6.54;74.06
12594;BME280;6362;50.208;9.182;2023-01-09T08:48:04;98402.38;;;6.55;74.66
12594;BME280;6362;50.208;9.182;2023-01-09T08:50:29;98404.13;;;6.53;75.02
12594;BME280;6362;50.208;9.182;2023-01-09T08:52:55;98413.50;;;6.58;74.73
12594;BME280;6362;50.208;9.182;2023-01-09T08:55:20;98406.75;;;6.51;74.46
12594;BME280;6362;50.208;9.182;2023-01-09T08:57:53;98405.69;;;6.63;74.36
12594;BME280;6362;50.208;9.182;2023-01-09T09:00:20;98415.28;;;6.56;74.55
12594;BME280;6362;50.208;9.182;2023-01-09T09:02:54;98407.41;;;6.64;74.76
12594;BME280;6362;50.208;9.182;2023-01-09T09:05:20;98412.41;;;6.72;74.39
12594;BME280;6362;50.208;9.182;2023-01-09T09:07:47;98415.00;;;6.72;74.02
12594;BME280;6362;50.208;9.182;2023-01-09T09:10:14;98409.88;;;6.70;73.90
12594;BME280;6362;50.208;9.182;2023-01-09T09:12:39;98418.53;;;6.68;73.98
12594;BME280;6362;50.208;9.182;2023-01-09T09:15:05;98416.78;;;6.70;74.17
12594;BME280;6362;50.208;9.182;2023-01-09T09:17:37;98421.06;;;6.72;73.95
12594;BME280;6362;50.208;9.182;2023-01-09T09:20:03;98430.59;;;6.67;74.16
12594;BME280;6362;50.208;9.182;2023-01-09T09:22:28;98425.38;;;6.70;74.58
12594;BME280;6362;50.208;9.182;2023-01-09T09:24:55;98426.22;;;6.72;74.64
12594;BME280;6362;50.208;9.182;2023-01-09T09:27:20;98425.16;;;6.82;74.36
12594;BME280;6362;50.208;9.182;2023-01-09T09:29:45;98426.84;;;6.85;73.76
12594;BME280;6362;50.208;9.182;2023-01-09T09:32:11;98428.63;;;6.81;74.09
12594;BME280;6362;50.208;9.182;2023-01-09T09:34:36;98421.78;;;6.77;74.51
12594;BME280;6362;50.208;9.182;2023-01-09T09:37:02;98428.72;;;6.75;74.71
12594;BME280;6362;50.208;9.182;2023-01-09T09:39:27;98420.09;;;6.78;74.81
12594;BME280;6362;50.208;9.182;2023-01-09T09:55:17;98424.94;;;6.96;73.59
12594;BME280;6362;50.208;9.182;2023-01-09T09:57:45;98426.66;;;6.97;73.89
12594;BME280;6362;50.208;9.182;2023-01-09T10:00:19;98434.28;;;7.03;73.64
12594;BME280;6362;50.208;9.182;2023-01-09T10:03:09;98429.91;;;7.08;74.13
12594;BME280;6362;50.208;9.182;2023-01-09T10:05:41;98435.97;;;7.06;73.60
12594;BME280;6362;50.208;9.182;2023-01-09T10:10:51;98422.22;;;7.04;73.58
12594;BME280;6362;50.208;9.182;2023-01-09T10:13:19;98431.66;;;7.05;73.75
12594;BME280;6362;50.208;9.182;2023-01-09T10:21:56;98422.22;;;7.05;73.93
12594;BME280;6362;50.208;9.182;2023-01-09T10:27:35;98415.19;;;7.12;73.61
12594;BME280;6362;50.208;9.182;2023-01-09T10:30:17;98415.97;;;7.17;73.54
12594;BME280;6362;50.208;9.182;2023-01-09T10:32:56;98412.53;;;7.17;73.41
12594;BME280;6362;50.208;9.182;2023-01-09T10:35:28;98411.72;;;7.13;73.50
12594;BME280;6362;50.208;9.182;2023-01-09T10:37:59;98415.75;;;7.28;73.66
12594;BME280;6362;50.208;9.182;2023-01-09T10:40:28;98411.13;;;7.45;72.52
12594;BME280;6362;50.208;9.182;2023-01-09T10:43:00;98406.94;;;8.20;70.38
12594;BME280;6362;50.208;9.182;2023-01-09T10:46:03;98407.72;;;8.24;68.73
12594;BME280;6362;50.208;9.182;2023-01-09T10:50:54;98419.41;;;8.03;69.94
12594;BME280;6362;50.208;9.182;2023-01-09T10:53:36;98420.44;;;7.96;70.65
12594;BME280;6362;50.208;9.182;2023-01-09T10:56:17;98417.41;;;8.15;69.99
12594;BME280;6362;50.208;9.182;2023-01-09T10:58:45;98420.91;;;8.13;70.02
12594;BME280;6362;50.208;9.182;2023-01-09T11:01:11;98427.69;;;8.18;70.25
12594;BME280;6362;50.208;9.182;2023-01-09T11:03:36;98428.06;;;8.02;69.63
12594;BME280;6362;50.208;9.182;2023-01-09T11:06:03;98429.00;;;7.98;70.17
12594;BME280;6362;50.208;9.182;2023-01-09T11:08:41;98423.75;;;8.02;69.66
12594;BME280;6362;50.208;9.182;2023-01-09T11:11:09;98420.72;;;7.83;69.46
12594;BME280;6362;50.208;9.182;2023-01-09T11:13:37;98432.09;;;7.75;70.14
12594;BME280;6362;50.208;9.182;2023-01-09T11:16:16;98428.72;;;7.70;69.95
12594;BME280;6362;50.208;9.182;2023-01-09T11:18:50;98428.72;;;7.70;70.53
12594;BME280;6362;50.208;9.182;2023-01-09T11:23:54;98426.06;;;8.14;69.73
12594;BME280;6362;50.208;9.182;2023-01-09T11:26:23;98433.00;;;8.53;68.10
12594;BME280;6362;50.208;9.182;2023-01-09T11:29:12;98423.53;;;9.20;65.72
12594;BME280;6362;50.208;9.182;2023-01-09T11:31:42;98428.63;;;9.24;65.22
12594;BME280;6362;50.208;9.182;2023-01-09T11:34:16;98414.84;;;9.53;64.25
12594;BME280;6362;50.208;9.182;2023-01-09T11:36:43;98409.44;;;10.20;61.96
12594;BME280;6362;50.208;9.182;2023-01-09T11:39:37;98415.50;;;10.49;61.04
12594;BME280;6362;50.208;9.182;2023-01-09T11:45:20;98416.63;;;10.68;59.57
12594;BME280;6362;50.208;9.182;2023-01-09T11:47:47;98411.00;;;10.27;61.04
12594;BME280;6362;50.208;9.182;2023-01-09T11:52:46;98408.28;;;11.10;59.03
12594;BME280;6362;50.208;9.182;2023-01-09T11:55:30;98402.97;;;10.88;58.37
12594;BME280;6362;50.208;9.182;2023-01-09T11:57:56;98406.91;;;10.47;60.13
12594;BME280;6362;50.208;9.182;2023-01-09T12:00:29;98400.38;;;10.35;60.06
12594;BME280;6362;50.208;9.182;2023-01-09T12:24:51;98412.75;;;10.53;59.85
12594;BME280;6362;50.208;9.182;2023-01-09T12:27:32;98408.66;;;10.18;61.16
12594;BME280;6362;50.208;9.182;2023-01-09T12:39:08;98398.53;;;14.55;48.42
12594;BME280;6362;50.208;9.182;2023-01-09T12:41:57;98408.16;;;12.98;51.51
12594;BME280;6362;50.208;9.182;2023-01-09T12:49:40;98411.75;;;11.35;55.97
12594;BME280;6362;50.208;9.182;2023-01-09T12:52:27;98414.28;;;10.32;58.19
12594;BME280;6362;50.208;9.182;2023-01-09T12:57:34;98415.91;;;9.46;61.67
12594;BME280;6362;50.208;9.182;2023-01-09T13:00:05;98413.19;;;9.51;61.99
12594;BME280;6362;50.208;9.182;2023-01-09T13:05:35;98429.41;;;9.28;62.68
12594;BME280;6362;50.208;9.182;2023-01-09T13:10:55;98430.84;;;9.04;64.20
12594;BME280;6362;50.208;9.182;2023-01-09T13:13:32;98433.03;;;8.87;65.42
12594;BME280;6362;50.208;9.182;2023-01-09T13:16:05;98434.13;;;8.77;66.10
12594;BME280;6362;50.208;9.182;2023-01-09T13:18:43;98430.09;;;8.66;66.59
12594;BME280;6362;50.208;9.182;2023-01-09T13:21:11;98427.78;;;8.54;66.93
12594;BME280;6362;50.208;9.182;2023-01-09T13:26:20;98436.13;;;8.27;68.67
12594;BME280;6362;50.208;9.182;2023-01-09T13:28:56;98439.19;;;8.07;69.28
12594;BME280;6362;50.208;9.182;2023-01-09T13:31:46;98439.59;;;7.87;70.04
12594;BME280;6362;50.208;9.182;2023-01-09T13:34:28;98446.69;;;7.77;70.60
12594;BME280;6362;50.208;9.182;2023-01-09T13:36:55;98454.34;;;7.82;71.23
12594;BME280;6362;50.208;9.182;2023-01-09T13:39:27;98450.16;;;7.78;71.28
12594;BME280;6362;50.208;9.182;2023-01-09T13:42:00;98456.97;;;7.80;70.59
12594;BME280;6362;50.208;9.182;2023-01-09T13:44:46;98454.47;;;7.76;71.30
12594;BME280;6362;50.208;9.182;2023-01-09T13:47:19;98455.50;;;7.68;71.68
12594;BME280;6362;50.208;9.182;2023-01-09T13:59:43;98467.09;;;7.92;70.61
12594;BME280;6362;50.208;9.182;2023-01-09T14:06:01;98460.84;;;8.03;70.80
12594;BME280;6362;50.208;9.182;2023-01-09T14:08:04;98468.94;;;7.86;71.40
12594;BME280;6362;50.208;9.182;2023-01-09T14:10:45;98478.25;;;7.96;71.94
12594;BME280;6362;50.208;9.182;2023-01-09T14:13:23;98474.03;;;7.90;71.78
12594;BME280;6362;50.208;9.182;2023-01-09T14:15:50;98476.78;;;7.83;71.36
12594;BME280;6362;50.208;9.182;2023-01-09T14:18:30;98476.84;;;7.80;71.95
12594;BME280;6362;50.208;9.182;2023-01-09T14:27:46;98502.13;;;7.65;71.62
12594;BME280;6362;50.208;9.182;2023-01-09T14:37:33;98517.69;;;7.64;71.70
12594;BME280;6362;50.208;9.182;2023-01-09T14:40:00;98534.84;;;7.68;72.05
12594;BME280;6362;50.208;9.182;2023-01-09T14:42:27;98541.88;;;7.60;71.86
12594;BME280;6362;50.208;9.182;2023-01-09T14:45:05;98545.38;;;7.59;72.29
12594;BME280;6362;50.208;9.182;2023-01-09T14:53:25;98546.94;;;7.66;72.52
12594;BME280;6362;50.208;9.182;2023-01-09T14:55:54;98566.03;;;7.62;72.41
12594;BME280;6362;50.208;9.182;2023-01-09T14:58:30;98554.72;;;7.67;72.46
12594;BME280;6362;50.208;9.182;2023-01-09T15:01:05;98552.19;;;7.63;72.80
12594;BME280;6362;50.208;9.182;2023-01-09T15:03:47;98565.31;;;7.52;73.24
12594;BME280;6362;50.208;9.182;2023-01-09T15:06:21;98573.13;;;7.49;73.07
12594;BME280;6362;50.208;9.182;2023-01-09T15:08:56;98569.94;;;7.35;73.88
12594;BME280;6362;50.208;9.182;2023-01-09T15:11:23;98575.91;;;7.37;73.59
12594;BME280;6362;50.208;9.182;2023-01-09T15:13:50;98567.38;;;7.33;73.84
12594;BME280;6362;50.208;9.182;2023-01-09T15:16:22;98561.34;;;7.31;74.19
12594;BME280;6362;50.208;9.182;2023-01-09T15:18:55;98576.09;;;7.28;74.40
12594;BME280;6362;50.208;9.182;2023-01-09T15:21:27;98577.69;;;7.35;74.12
12594;BME280;6362;50.208;9.182;2023-01-09T15:24:19;98588.91;;;7.34;73.86
12594;BME280;6362;50.208;9.182;2023-01-09T15:26:52;98579.59;;;7.24;74.00
12594;BME280;6362;50.208;9.182;2023-01-09T15:29:18;98589.28;;;7.09;74.06
12594;BME280;6362;50.208;9.182;2023-01-09T15:31:46;98581.50;;;7.12;74.00
12594;BME280;6362;50.208;9.182;2023-01-09T15:34:17;98595.16;;;7.19;73.90
12594;BME280;6362;50.208;9.182;2023-01-09T15:36:44;98600.41;;;7.14;73.91
12594;BME280;6362;50.208;9.182;2023-01-09T15:39:37;98600.50;;;7.08;73.87
12594;BME280;6362;50.208;9.182;2023-01-09T15:42:03;98604.78;;;7.09;73.19
12594;BME280;6362;50.208;9.182;2023-01-09T15:44:48;98602.22;;;7.09;73.60
12594;BME280;6362;50.208;9.182;2023-01-09T15:47:20;98612.53;;;7.09;73.53
12594;BME280;6362;50.208;9.182;2023-01-09T15:49:47;98611.69;;;7.09;73.37
12594;BME280;6362;50.208;9.182;2023-01-09T15:52:13;98607.47;;;7.03;73.43
12594;BME280;6362;50.208;9.182;2023-01-09T15:54:40;98617.81;;;7.03;73.63
12594;BME280;6362;50.208;9.182;2023-01-09T15:59:55;98616.22;;;6.95;73.32
12594;BME280;6362;50.208;9.182;2023-01-09T16:02:22;98620.50;;;6.96;72.92
12594;BME280;6362;50.208;9.182;2023-01-09T16:05:07;98627.38;;;6.97;72.77